createdAt,value
2019-06-01T00:00:40.583Z,15.86
2019-06-01T00:03:06.587Z,15.87
2019-06-01T00:05:32.672Z,15.81
2019-06-01T00:07:58.667Z,15.84
2019-06-01T00:10:24.684Z,15.80
2019-06-01T00:12:50.709Z,15.80
2019-06-01T00:15:16.869Z,15.80
2019-06-01T00:17:43.883Z,15.77
2019-06-01T00:20:10.055Z,15.86
2019-06-01T00:22:36.080Z,15.95
2019-06-01T00:25:03.860Z,15.88
2019-06-01T00:27:29.860Z,16.01
2019-06-01T00:29:55.852Z,15.97
2019-06-01T00:32:21.852Z,15.89
2019-06-01T00:34:47.851Z,15.90
2019-06-01T00:37:13.868Z,15.81
2019-06-01T00:39:39.847Z,15.89
2019-06-01T00:42:05.966Z,15.91
2019-06-01T00:44:31.955Z,15.90
2019-06-01T00:46:57.935Z,15.89
2019-06-01T00:49:23.952Z,15.90
2019-06-01T00:51:52.009Z,15.92
2019-06-01T00:54:18.044Z,15.77
2019-06-01T00:56:45.489Z,15.76
2019-06-01T00:59:11.653Z,15.89
2019-06-01T01:01:37.663Z,16.00
2019-06-01T01:04:03.663Z,16.02
2019-06-01T01:06:29.667Z,16.08
2019-06-01T01:08:55.971Z,16.08
2019-06-01T01:11:22.066Z,16.06
2019-06-01T01:13:49.170Z,16.05
2019-06-01T01:16:15.263Z,16.06
2019-06-01T01:18:41.233Z,16.03
2019-06-01T01:21:07.236Z,16.03
2019-06-01T01:23:33.479Z,16.04
2019-06-01T01:25:59.523Z,16.12
2019-06-01T01:28:25.496Z,16.08
2019-06-01T01:31:02.976Z,16.14
2019-06-01T01:33:19.786Z,15.89
2019-06-01T01:35:47.438Z,15.85
2019-06-01T01:38:13.684Z,15.97
2019-06-01T01:40:39.700Z,15.96
2019-06-01T01:43:05.702Z,15.91
2019-06-01T01:45:31.677Z,15.98
2019-06-01T01:47:57.700Z,16.07
2019-06-01T01:50:24.799Z,16.13
2019-06-01T01:52:50.883Z,16.03
2019-06-01T01:55:16.909Z,16.08
2019-06-01T01:57:42.855Z,16.05
2019-06-01T02:00:10.590Z,16.01
2019-06-01T02:02:36.556Z,16.06
2019-06-01T02:05:04.329Z,16.11
2019-06-01T02:07:30.359Z,16.00
2019-06-01T02:09:57.213Z,16.08
2019-06-01T02:12:23.347Z,16.24
2019-06-01T02:14:49.441Z,16.14
2019-06-01T02:17:15.450Z,16.22
2019-06-01T02:19:41.464Z,16.18
2019-06-01T02:22:07.452Z,16.17
2019-06-01T02:24:33.444Z,16.10
2019-06-01T02:26:59.482Z,16.18
2019-06-01T02:29:25.476Z,16.16
2019-06-01T02:31:51.501Z,16.17
2019-06-01T02:34:17.743Z,16.11
2019-06-01T02:36:43.752Z,16.05
2019-06-01T02:39:11.623Z,16.15
2019-06-01T02:41:37.797Z,16.05
2019-06-01T02:44:06.136Z,16.16
2019-06-01T02:46:35.403Z,16.32
2019-06-01T02:48:59.889Z,16.34
2019-06-01T02:51:26.420Z,16.39
2019-06-01T02:53:52.642Z,16.41
2019-06-01T02:56:18.669Z,16.40
2019-06-01T02:58:44.636Z,16.33
2019-06-01T03:01:36.402Z,16.29
2019-06-01T03:04:05.399Z,16.28
2019-06-01T03:06:31.773Z,16.28
2019-06-01T03:08:59.748Z,16.32
2019-06-01T03:11:29.796Z,16.39
2019-06-01T03:13:58.180Z,16.46
2019-06-01T03:16:27.801Z,16.56
2019-06-01T03:18:57.666Z,16.55
2019-06-01T03:21:27.469Z,16.52
2019-06-01T03:23:56.870Z,16.55
2019-06-01T03:26:24.673Z,16.55
2019-06-01T03:28:51.073Z,16.64
2019-06-01T03:31:17.086Z,16.57
2019-06-01T03:33:43.071Z,16.61
2019-06-01T03:36:09.181Z,16.49
2019-06-01T03:38:35.171Z,16.51
2019-06-01T03:41:02.073Z,16.61
2019-06-01T03:43:28.176Z,16.43
2019-06-01T03:45:54.201Z,16.47
2019-06-01T03:48:20.224Z,16.54
2019-06-01T03:50:46.202Z,16.56
2019-06-01T03:53:12.276Z,16.61
2019-06-01T03:55:38.377Z,16.61
2019-06-01T03:58:04.999Z,16.70
2019-06-01T04:00:31.171Z,16.78
2019-06-01T04:02:57.150Z,16.89
2019-06-01T04:05:23.185Z,16.86
2019-06-01T04:07:49.166Z,16.88
2019-06-01T04:10:15.201Z,16.99
2019-06-01T04:12:41.201Z,17.00
2019-06-01T04:15:11.597Z,16.95
2019-06-01T04:17:35.278Z,16.92
2019-06-01T04:20:02.072Z,16.95
2019-06-01T04:22:28.118Z,16.95
2019-06-01T04:24:54.102Z,16.93
2019-06-01T04:27:20.348Z,16.99
2019-06-01T04:29:46.382Z,16.98
2019-06-01T04:32:12.878Z,16.95
2019-06-01T04:34:38.944Z,16.94
2019-06-01T04:37:05.608Z,16.87
2019-06-01T04:39:31.584Z,16.89
2019-06-01T04:41:57.835Z,16.91
2019-06-01T04:44:23.813Z,16.93
2019-06-01T04:46:50.329Z,17.00
2019-06-01T04:49:16.313Z,17.07
2019-06-01T04:51:42.320Z,17.05
2019-06-01T04:54:08.800Z,17.06
2019-06-01T04:56:35.384Z,17.11
2019-06-01T04:59:05.003Z,17.01
2019-06-01T05:01:31.129Z,17.01
2019-06-01T05:03:57.108Z,17.06
2019-06-01T05:06:23.725Z,16.96
2019-06-01T05:08:50.084Z,16.95
2019-06-01T05:11:16.073Z,17.01
2019-06-01T05:13:42.580Z,16.82
2019-06-01T05:16:09.929Z,16.93
2019-06-01T05:18:36.508Z,17.06
2019-06-01T05:21:02.649Z,17.01
2019-06-01T05:23:28.724Z,17.10
2019-06-01T05:25:54.692Z,17.25
2019-06-01T05:28:21.223Z,17.26
2019-06-01T05:30:47.537Z,17.37
2019-06-01T05:33:31.022Z,17.36
2019-06-01T05:35:42.393Z,17.35
2019-06-01T05:38:08.369Z,17.49
2019-06-01T05:40:34.622Z,17.54
2019-06-01T05:43:00.725Z,17.64
2019-06-01T05:45:26.714Z,17.68
2019-06-01T05:47:52.858Z,17.73
2019-06-01T05:50:19.172Z,17.80
2019-06-01T05:52:45.264Z,17.89
2019-06-01T05:55:12.838Z,18.03
2019-06-01T05:57:39.040Z,17.95
2019-06-01T06:00:08.941Z,18.13
2019-06-01T06:02:35.641Z,18.06
2019-06-01T06:05:02.366Z,18.24
2019-06-01T06:07:28.376Z,18.39
2019-06-01T06:09:54.358Z,18.54
2019-06-01T06:12:21.625Z,18.57
2019-06-01T06:14:47.783Z,18.66
2019-06-01T06:17:17.363Z,18.64
2019-06-01T06:19:43.091Z,18.72
2019-06-01T06:22:09.110Z,18.65
2019-06-01T06:24:35.096Z,18.95
2019-06-01T06:27:01.205Z,19.03
2019-06-01T06:29:27.206Z,19.04
2019-06-01T06:31:53.209Z,19.10
2019-06-01T06:34:19.691Z,18.92
2019-06-01T06:36:45.859Z,19.03
2019-06-01T06:39:11.848Z,19.09
2019-06-01T06:41:37.862Z,19.15
2019-06-01T06:44:03.976Z,19.22
2019-06-01T06:46:30.124Z,18.97
2019-06-01T06:48:56.212Z,18.88
2019-06-01T06:51:23.310Z,18.94
2019-06-01T06:53:49.420Z,18.94
2019-06-01T06:56:15.713Z,19.17
2019-06-01T06:58:41.855Z,19.12
2019-06-01T07:01:11.812Z,19.16
2019-06-01T07:03:35.795Z,19.42
2019-06-01T07:06:01.802Z,19.41
2019-06-01T07:08:28.065Z,19.69
2019-06-01T07:10:54.156Z,19.59
2019-06-01T07:13:21.229Z,20.14
2019-06-01T07:15:47.408Z,20.29
2019-06-01T07:18:13.563Z,19.92
2019-06-01T07:20:39.555Z,20.29
2019-06-01T07:23:05.603Z,19.95
2019-06-01T07:25:32.925Z,20.15
2019-06-01T07:27:59.159Z,20.03
2019-06-01T07:30:26.264Z,19.88
2019-06-01T07:32:52.497Z,20.33
2019-06-01T07:35:18.676Z,20.53
2019-06-01T07:37:44.652Z,20.12
2019-06-01T07:40:13.720Z,20.70
2019-06-01T07:42:38.553Z,21.25
2019-06-01T07:45:05.461Z,21.24
2019-06-01T07:47:31.465Z,21.76
2019-06-01T07:49:58.049Z,21.46
2019-06-01T07:52:24.243Z,21.78
2019-06-01T07:54:50.310Z,22.28
2019-06-01T07:57:16.599Z,22.48
2019-06-01T07:59:42.976Z,22.48
2019-06-01T08:02:09.346Z,22.18
2019-06-01T08:04:52.830Z,21.74
2019-06-01T08:07:03.952Z,21.95
2019-06-01T08:09:30.061Z,22.78
2019-06-01T08:11:57.317Z,23.06
2019-06-01T08:14:24.515Z,21.94
2019-06-01T08:16:50.665Z,21.82
2019-06-01T08:19:17.029Z,22.51
2019-06-01T08:21:43.553Z,22.60
2019-06-01T08:24:12.047Z,22.18
2019-06-01T08:26:38.369Z,22.01
2019-06-01T08:29:04.336Z,21.52
2019-06-01T08:31:31.858Z,21.77
2019-06-01T08:33:58.672Z,21.97
2019-06-01T08:36:25.231Z,22.54
2019-06-01T08:38:51.871Z,23.30
2019-06-01T08:41:17.842Z,22.76
2019-06-01T08:43:43.921Z,23.25
2019-06-01T08:46:10.004Z,23.01
2019-06-01T08:48:36.194Z,23.17
2019-06-01T08:51:02.475Z,22.88
2019-06-01T08:53:28.600Z,22.98
2019-06-01T08:55:54.625Z,22.80
2019-06-01T08:58:20.698Z,22.33
2019-06-01T09:00:46.781Z,22.17
2019-06-01T09:03:12.813Z,21.55
2019-06-01T09:05:38.887Z,21.81
2019-06-01T09:08:05.135Z,21.63
2019-06-01T09:10:31.519Z,21.22
2019-06-01T09:12:57.912Z,21.15
2019-06-01T09:15:25.571Z,21.35
2019-06-01T09:17:51.960Z,21.35
2019-06-01T09:20:18.227Z,21.40
2019-06-01T09:22:47.914Z,21.50
2019-06-01T09:25:12.525Z,21.52
2019-06-01T09:27:38.533Z,21.87
2019-06-01T09:30:05.621Z,21.85
2019-06-01T09:32:32.252Z,21.66
2019-06-01T09:34:58.374Z,21.43
2019-06-01T09:37:24.391Z,21.25
2019-06-01T09:39:50.406Z,21.28
2019-06-01T09:42:16.443Z,21.17
2019-06-01T09:44:42.553Z,21.09
2019-06-01T09:47:08.560Z,21.00
2019-06-01T09:49:35.718Z,21.14
2019-06-01T09:52:02.131Z,21.31
2019-06-01T09:54:29.455Z,21.27
2019-06-01T09:56:56.278Z,21.24
2019-06-01T09:59:22.408Z,21.36
2019-06-01T10:01:48.511Z,20.95
2019-06-01T10:04:14.630Z,21.32
2019-06-01T10:06:40.650Z,21.45
2019-06-01T10:09:07.685Z,21.94
2019-06-01T10:11:34.290Z,22.46
2019-06-01T10:14:01.104Z,23.24
2019-06-01T10:16:27.232Z,23.42
2019-06-01T10:18:53.253Z,23.71
2019-06-01T10:21:19.238Z,23.99
2019-06-01T10:23:49.048Z,24.60
2019-06-01T10:26:13.241Z,23.14
2019-06-01T10:28:39.802Z,23.51
2019-06-01T10:31:05.956Z,23.08
2019-06-01T10:33:32.672Z,23.66
2019-06-01T10:35:58.754Z,23.81
2019-06-01T10:38:24.778Z,23.99
2019-06-01T10:40:50.768Z,23.98
2019-06-01T10:43:16.848Z,23.66
2019-06-01T10:45:42.870Z,23.86
2019-06-01T10:48:08.841Z,23.62
2019-06-01T10:50:35.239Z,23.54
2019-06-01T10:53:02.753Z,23.12
2019-06-01T10:55:28.740Z,23.35
2019-06-01T10:57:54.753Z,23.49
2019-06-01T11:00:37.109Z,23.87
2019-06-01T11:02:49.084Z,24.17
2019-06-01T11:05:15.080Z,24.34
2019-06-01T11:07:41.144Z,24.23
2019-06-01T11:10:07.913Z,24.31
2019-06-01T11:12:34.933Z,24.32
2019-06-01T11:15:01.131Z,24.50
2019-06-01T11:17:27.117Z,24.44
2019-06-01T11:19:53.189Z,24.51
2019-06-01T11:22:19.205Z,25.14
2019-06-01T11:24:45.169Z,25.05
2019-06-01T11:27:11.184Z,25.52
2019-06-01T11:29:42.894Z,25.60
2019-06-01T11:32:05.214Z,25.66
2019-06-01T11:34:31.591Z,25.45
2019-06-01T11:37:05.133Z,25.24
2019-06-01T11:39:25.456Z,25.67
2019-06-01T11:41:51.529Z,25.60
2019-06-01T11:44:17.627Z,26.75
2019-06-01T11:46:44.987Z,26.41
2019-06-01T11:49:11.285Z,25.52
2019-06-01T11:51:37.292Z,25.74
2019-06-01T11:54:03.387Z,25.74
2019-06-01T11:56:29.355Z,26.60
2019-06-01T11:58:55.363Z,25.44
2019-06-01T12:01:21.604Z,25.53
2019-06-01T12:03:47.641Z,26.23
2019-06-01T12:06:13.619Z,25.63
2019-06-01T12:08:40.028Z,26.28
2019-06-01T12:11:06.073Z,25.89
2019-06-01T12:13:32.105Z,25.98
2019-06-01T12:15:58.218Z,26.40
2019-06-01T12:18:24.209Z,26.73
2019-06-01T12:20:50.235Z,26.78
2019-06-01T12:23:16.276Z,27.28
2019-06-01T12:25:42.254Z,27.31
2019-06-01T12:28:08.263Z,27.24
2019-06-01T12:30:34.302Z,27.23
2019-06-01T12:33:00.296Z,27.59
2019-06-01T12:35:26.308Z,27.54
2019-06-01T12:38:05.508Z,27.49
2019-06-01T12:40:20.452Z,28.00
2019-06-01T12:42:47.654Z,27.95
2019-06-01T12:45:22.667Z,27.63
2019-06-01T12:47:52.373Z,27.73
2019-06-01T12:50:15.158Z,27.95
2019-06-01T12:52:42.250Z,27.41
2019-06-01T12:55:08.437Z,26.35
2019-06-01T12:57:34.465Z,26.89
2019-06-01T13:00:00.909Z,26.43
2019-06-01T13:02:26.890Z,26.78
2019-06-01T13:04:53.166Z,26.73
2019-06-01T13:07:19.397Z,26.86
2019-06-01T13:09:46.136Z,26.57
2019-06-01T13:12:12.299Z,26.54
2019-06-01T13:14:38.312Z,26.75
2019-06-01T13:17:07.749Z,26.55
2019-06-01T13:19:32.316Z,26.45
2019-06-01T13:21:58.289Z,26.54
2019-06-01T13:24:24.318Z,26.56
2019-06-01T13:26:50.297Z,26.23
2019-06-01T13:29:16.320Z,26.19
2019-06-01T13:31:42.328Z,26.43
2019-06-01T13:34:08.397Z,26.48
2019-06-01T13:36:34.469Z,26.37
2019-06-01T13:39:00.469Z,26.36
2019-06-01T13:41:26.469Z,26.31
2019-06-01T13:43:53.456Z,26.13
2019-06-01T13:46:19.589Z,26.07
2019-06-01T13:48:45.623Z,26.32
2019-06-01T13:51:11.672Z,26.46
2019-06-01T13:53:37.709Z,26.46
2019-06-01T13:56:03.694Z,26.45
2019-06-01T13:58:29.691Z,26.72
2019-06-01T14:00:55.675Z,26.40
2019-06-01T14:03:21.709Z,26.26
2019-06-01T14:05:48.783Z,26.58
2019-06-01T14:08:28.017Z,26.54
2019-06-01T14:10:42.802Z,26.51
2019-06-01T14:13:08.873Z,26.37
2019-06-01T14:15:34.884Z,26.53
2019-06-01T14:18:00.912Z,26.34
2019-06-01T14:20:26.928Z,26.15
2019-06-01T14:22:54.043Z,25.92
2019-06-01T14:25:20.250Z,25.79
2019-06-01T14:27:46.270Z,25.63
2019-06-01T14:30:14.984Z,25.42
2019-06-01T14:32:41.100Z,25.50
2019-06-01T14:35:07.504Z,25.62
2019-06-01T14:37:33.523Z,25.40
2019-06-01T14:39:59.535Z,25.81
2019-06-01T14:42:25.509Z,25.62
2019-06-01T14:44:51.521Z,25.71
2019-06-01T14:47:18.729Z,25.80
2019-06-01T14:49:45.258Z,25.50
2019-06-01T14:52:11.273Z,25.40
2019-06-01T14:54:37.248Z,25.08
2019-06-01T14:57:03.724Z,24.79
2019-06-01T14:59:29.829Z,25.10
2019-06-01T15:01:56.272Z,24.97
2019-06-01T15:04:22.403Z,24.50
2019-06-01T15:06:48.453Z,24.24
2019-06-01T15:09:18.881Z,24.24
2019-06-01T15:11:42.368Z,23.81
2019-06-01T15:14:08.396Z,23.96
2019-06-01T15:16:34.377Z,23.80
2019-06-01T15:19:00.388Z,23.66
2019-06-01T15:21:26.364Z,23.56
2019-06-01T15:23:52.332Z,23.13
2019-06-01T15:26:18.366Z,23.37
2019-06-01T15:28:44.392Z,23.34
2019-06-01T15:31:10.390Z,23.60
2019-06-01T15:33:36.641Z,23.55
2019-06-01T15:36:03.023Z,23.36
2019-06-01T15:38:29.341Z,23.36
2019-06-01T15:40:56.131Z,23.40
2019-06-01T15:43:22.276Z,23.31
2019-06-01T15:45:48.263Z,22.99
2019-06-01T15:48:14.288Z,22.94
2019-06-01T15:50:40.257Z,22.97
2019-06-01T15:53:06.249Z,23.00
2019-06-01T15:55:32.304Z,22.92
2019-06-01T15:57:58.521Z,22.82
2019-06-01T16:00:24.797Z,22.55
2019-06-01T16:02:50.802Z,22.46
2019-06-01T16:05:16.799Z,22.60
2019-06-01T16:07:43.033Z,22.66
2019-06-01T16:10:09.429Z,22.47
2019-06-01T16:12:35.632Z,22.31
2019-06-01T16:15:02.207Z,22.19
2019-06-01T16:17:28.401Z,22.18
2019-06-01T16:19:55.775Z,22.33
2019-06-01T16:22:21.941Z,22.46
2019-06-01T16:24:47.932Z,22.34
2019-06-01T16:27:13.956Z,21.98
2019-06-01T16:29:39.942Z,22.25
2019-06-01T16:32:06.100Z,22.12
2019-06-01T16:34:32.205Z,22.02
2019-06-01T16:36:58.887Z,21.99
2019-06-01T16:39:25.065Z,21.91
2019-06-01T16:41:51.125Z,21.90
2019-06-01T16:44:19.708Z,22.01
2019-06-01T16:46:44.997Z,21.81
2019-06-01T16:49:11.002Z,21.85
2019-06-01T16:51:56.417Z,21.58
2019-06-01T16:54:23.124Z,21.58
2019-06-01T16:56:49.181Z,21.49
2019-06-01T16:59:15.260Z,21.52
2019-06-01T17:01:41.372Z,21.50
2019-06-01T17:04:07.403Z,21.52
2019-06-01T17:06:36.483Z,21.23
2019-06-01T17:09:09.057Z,21.20
2019-06-01T17:11:35.212Z,20.95
2019-06-01T17:14:01.436Z,21.13
2019-06-01T17:16:27.545Z,21.00
2019-06-01T17:18:53.627Z,20.94
2019-06-01T17:21:19.628Z,21.08
2019-06-01T17:23:45.673Z,21.11
2019-06-01T17:26:11.682Z,21.03
2019-06-01T17:28:37.764Z,20.87
2019-06-01T17:31:04.288Z,20.74
2019-06-01T17:33:30.391Z,20.70
2019-06-01T17:35:56.525Z,20.68
2019-06-01T17:38:22.526Z,20.57
2019-06-01T17:40:48.558Z,20.62
2019-06-01T17:43:14.714Z,20.60
2019-06-01T17:45:40.758Z,20.74
2019-06-01T17:48:23.470Z,20.63
2019-06-01T17:50:34.887Z,20.74
2019-06-01T17:53:00.908Z,20.72
2019-06-01T17:55:29.524Z,20.56
2019-06-01T17:57:55.621Z,20.54
2019-06-01T18:00:21.952Z,20.33
2019-06-01T18:02:48.339Z,20.36
2019-06-01T18:05:14.427Z,20.39
2019-06-01T18:07:40.608Z,20.26
2019-06-01T18:10:08.115Z,20.14
2019-06-01T18:12:34.691Z,20.18
2019-06-01T18:15:02.182Z,20.09
2019-06-01T18:17:28.623Z,20.05
2019-06-01T18:19:55.593Z,19.99
2019-06-01T18:22:21.632Z,20.07
2019-06-01T18:24:47.741Z,19.97
2019-06-01T18:27:13.857Z,19.92
2019-06-01T18:29:48.029Z,19.92
2019-06-01T18:32:08.067Z,19.87
2019-06-01T18:34:37.545Z,19.82
2019-06-01T18:37:03.604Z,19.70
2019-06-01T18:39:30.386Z,19.77
2019-06-01T18:41:57.008Z,19.65
2019-06-01T18:44:23.280Z,19.60
2019-06-01T18:46:49.751Z,19.54
2019-06-01T18:49:18.075Z,19.61
2019-06-01T18:51:44.550Z,19.44
2019-06-01T18:54:11.039Z,19.39
2019-06-01T18:56:37.155Z,19.32
2019-06-01T18:59:06.959Z,19.26
2019-06-01T19:01:34.261Z,19.28
2019-06-01T19:04:01.408Z,19.33
2019-06-01T19:06:27.422Z,19.20
2019-06-01T19:08:54.521Z,19.16
2019-06-01T19:11:32.894Z,19.20
2019-06-01T19:13:49.271Z,19.20
2019-06-01T19:16:16.845Z,19.04
2019-06-01T19:18:42.876Z,18.94
2019-06-01T19:21:10.595Z,19.00
2019-06-01T19:23:37.177Z,18.99
2019-06-01T19:26:03.227Z,18.92
2019-06-01T19:28:29.661Z,18.82
2019-06-01T19:30:56.461Z,18.81
2019-06-01T19:33:22.575Z,18.84
2019-06-01T19:35:50.671Z,18.69
2019-06-01T19:38:18.681Z,18.67
2019-06-01T19:40:44.906Z,18.61
2019-06-01T19:43:11.512Z,18.47
2019-06-01T19:45:38.957Z,18.51
2019-06-01T19:48:08.024Z,18.35
2019-06-01T19:50:35.787Z,18.23
2019-06-01T19:53:01.834Z,18.26
2019-06-01T19:55:27.946Z,18.23
2019-06-01T19:57:54.091Z,18.15
2019-06-01T20:00:20.210Z,18.13
2019-06-01T20:02:47.328Z,18.10
2019-06-01T20:05:14.585Z,18.07
2019-06-01T20:07:41.460Z,18.02
2019-06-01T20:10:07.744Z,17.99
2019-06-01T20:12:34.529Z,17.91
2019-06-01T20:15:06.636Z,17.92
2019-06-01T20:17:32.677Z,17.80
2019-06-01T20:19:58.788Z,17.89
2019-06-01T20:22:24.813Z,17.96
2019-06-01T20:24:50.952Z,18.05
2019-06-01T20:27:17.486Z,17.81
2019-06-01T20:29:43.673Z,17.74
2019-06-01T20:32:09.705Z,17.64
2019-06-01T20:34:35.695Z,17.64
2019-06-01T20:37:01.713Z,17.61
2019-06-01T20:39:27.746Z,17.78
2019-06-01T20:41:53.799Z,17.51
2019-06-01T20:44:20.954Z,17.35
2019-06-01T20:46:47.139Z,17.32
2019-06-01T20:49:14.401Z,17.22
2019-06-01T20:51:40.637Z,17.25
2019-06-01T20:54:06.649Z,17.21
2019-06-01T20:56:32.725Z,17.19
2019-06-01T20:58:58.771Z,17.26
2019-06-01T21:01:24.797Z,17.31
2019-06-01T21:03:51.204Z,17.28
2019-06-01T21:06:18.542Z,17.32
2019-06-01T21:08:44.933Z,17.26
2019-06-01T21:11:11.098Z,17.23
2019-06-01T21:13:37.229Z,17.20
2019-06-01T21:16:03.340Z,17.18
2019-06-01T21:18:29.393Z,17.15
2019-06-01T21:20:55.500Z,17.20
2019-06-01T21:23:22.543Z,17.07
2019-06-01T21:25:49.165Z,17.08
2019-06-01T21:28:17.681Z,16.91
2019-06-01T21:30:43.254Z,17.00
2019-06-01T21:33:09.225Z,17.09
2019-06-01T21:35:35.327Z,17.04
2019-06-01T21:38:01.399Z,16.85
2019-06-01T21:40:27.535Z,16.82
2019-06-01T21:43:02.995Z,16.86
2019-06-01T21:45:21.805Z,16.87
2019-06-01T21:47:48.041Z,16.79
2019-06-01T21:50:16.536Z,16.77
2019-06-01T21:52:44.341Z,16.77
2019-06-01T21:55:11.458Z,16.78
2019-06-01T21:57:37.531Z,16.74
2019-06-01T22:00:07.223Z,16.66
2019-06-01T22:02:33.394Z,16.78
2019-06-01T22:04:59.598Z,16.62
2019-06-01T22:07:25.583Z,16.64
2019-06-01T22:09:51.673Z,16.69
2019-06-01T22:12:17.762Z,16.70
2019-06-01T22:14:43.820Z,16.66
2019-06-01T22:17:09.813Z,16.54
2019-06-01T22:19:35.877Z,16.61
2019-06-01T22:22:01.918Z,16.66
2019-06-01T22:24:28.336Z,16.54
2019-06-01T22:26:54.430Z,16.67
2019-06-01T22:29:20.471Z,16.79
2019-06-01T22:31:46.493Z,16.78
2019-06-01T22:34:12.518Z,16.69
2019-06-01T22:36:38.619Z,16.52
2019-06-01T22:39:06.530Z,16.48
2019-06-01T22:41:32.767Z,16.48
2019-06-01T22:43:58.815Z,16.43
2019-06-01T22:46:24.884Z,16.39
2019-06-01T22:48:50.928Z,16.28
2019-06-01T22:51:16.908Z,16.21
2019-06-01T22:53:42.924Z,16.05
2019-06-01T22:56:08.941Z,15.98
2019-06-01T22:58:35.056Z,15.89
2019-06-01T23:01:01.130Z,15.95
2019-06-01T23:03:28.102Z,16.00
2019-06-01T23:05:54.214Z,15.82
2019-06-01T23:08:20.922Z,15.80
2019-06-01T23:10:47.073Z,15.81
2019-06-01T23:13:13.235Z,15.71
2019-06-01T23:15:39.306Z,15.60
2019-06-01T23:18:05.316Z,15.53
2019-06-01T23:20:32.234Z,15.44
2019-06-01T23:22:58.346Z,15.32
2019-06-01T23:25:24.519Z,15.27
2019-06-01T23:27:50.666Z,15.27
2019-06-01T23:30:16.754Z,15.42
2019-06-01T23:32:42.932Z,15.25
2019-06-01T23:35:08.935Z,15.16
2019-06-01T23:37:35.083Z,15.23
2019-06-01T23:40:01.164Z,15.21
2019-06-01T23:42:27.168Z,15.07
2019-06-01T23:44:53.180Z,14.97
2019-06-01T23:47:19.272Z,14.81
2019-06-01T23:49:45.248Z,14.56
2019-06-01T23:52:11.328Z,14.59
2019-06-01T23:54:37.364Z,14.59
2019-06-01T23:57:03.382Z,14.71
2019-06-01T23:59:30.800Z,14.77
